Time;durP1;ratioP1;P1;durP2;ratioP2;P2;SDS_P1;SDS_P2;PMS_P1;PMS_P2;Temp;Humidity;BMP_temperature;BMP_pressure;BME280_temperature;BME280_humidity;BME280_pressure;Samples;Min_cycle;Max_cycle;Signal;HPM_P1;HPM_P2
2020/12/13 00:00:48;;;;;;;6.13;2.90;;;;;;;4.70;100.00;100829.97;1865927;75;934858;-71
2020/12/13 00:03:18;;;;;;;8.70;3.40;;;;;;;4.69;100.00;100830.20;1853737;75;934595;-71
2020/12/13 00:05:48;;;;;;;8.63;3.13;;;;;;;4.63;100.00;100830.64;1865753;75;932555;-72
2020/12/13 00:08:18;;;;;;;8.33;3.27;;;;;;;4.68;100.00;100828.53;1853790;76;933604;-71
2020/12/13 00:10:48;;;;;;;7.37;3.30;;;;;;;4.28;100.00;100821.73;1845387;77;932814;-71
2020/12/13 00:13:18;;;;;;;7.87;3.42;;;;;;;4.21;100.00;100827.89;1853970;75;933408;-71
2020/12/13 00:15:48;;;;;;;9.83;3.90;;;;;;;4.09;100.00;100832.89;1865649;75;932620;-71
2020/12/13 00:18:17;;;;;;;8.03;2.97;;;;;;;4.13;100.00;100839.57;1833395;76;934947;-71
2020/12/13 00:20:47;;;;;;;8.47;3.20;;;;;;;4.06;100.00;100849.84;1866076;76;932574;-71
2020/12/13 00:23:17;;;;;;;6.22;2.80;;;;;;;4.16;100.00;100845.11;1833305;76;934636;-71
2020/12/13 00:25:47;;;;;;;13.50;3.50;;;;;;;4.09;100.00;100847.17;1865842;76;934627;-71
2020/12/13 00:28:17;;;;;;;7.50;3.90;;;;;;;4.41;100.00;100851.12;1854218;75;936711;-71
2020/12/13 00:30:46;;;;;;;11.53;3.40;;;;;;;4.51;100.00;100847.74;1865527;75;934472;-71
2020/12/13 00:33:17;;;;;;;6.55;3.10;;;;;;;4.53;100.00;100845.06;1832344;76;936595;-71
2020/12/13 00:35:47;;;;;;;7.27;3.00;;;;;;;4.35;100.00;100852.66;1865991;75;934664;-71
2020/12/13 00:38:17;;;;;;;8.08;3.12;;;;;;;4.20;100.00;100854.53;1833654;76;934547;-71
2020/12/13 00:40:49;;;;;;;8.83;4.10;;;;;;;4.27;100.00;100847.01;1865833;75;934534;-71
2020/12/13 00:43:19;;;;;;;8.73;4.50;;;;;;;4.24;100.00;100852.12;1833308;77;934455;-71
2020/12/13 00:45:49;;;;;;;10.17;4.77;;;;;;;4.05;100.00;100850.11;1864990;76;932633;-71
2020/12/13 00:48:19;;;;;;;8.38;5.03;;;;;;;3.89;100.00;100851.70;1853487;76;936465;-72
2020/12/13 00:50:48;;;;;;;9.10;5.10;;;;;;;3.82;100.00;100844.11;1866045;75;932764;-71
2020/12/13 00:53:18;;;;;;;9.47;4.90;;;;;;;3.74;100.00;100836.23;1853390;75;934541;-71
2020/12/13 00:55:49;;;;;;;13.80;4.80;;;;;;;3.75;100.00;100843.41;1866209;76;932462;-71
2020/12/13 00:58:18;;;;;;;11.22;4.90;;;;;;;3.85;100.00;100840.06;1853830;76;936500;-71
2020/12/13 01:00:48;;;;;;;10.07;4.40;;;;;;;3.86;100.00;100843.08;1845323;76;934769;-71
2020/12/13 01:03:18;;;;;;;11.60;4.57;;;;;;;3.87;100.00;100848.88;1853653;75;936592;-71
2020/12/13 01:05:48;;;;;;;10.70;4.37;;;;;;;3.64;100.00;100847.82;1845259;77;934630;-71
2020/12/13 01:08:18;;;;;;;9.68;5.00;;;;;;;3.60;100.00;100848.01;1853679;75;936750;-71
2020/12/13 01:10:48;;;;;;;10.93;4.47;;;;;;;3.78;100.00;100847.58;1865712;75;932510;-71
2020/12/13 01:13:18;;;;;;;8.10;5.00;;;;;;;3.74;100.00;100850.50;1853376;76;935810;-71
2020/12/13 01:15:50;;;;;;;12.50;4.83;;;;;;;3.72;100.00;100845.80;1845308;76;932563;-72
2020/12/13 01:18:20;;;;;;;9.93;4.78;;;;;;;3.88;100.00;100842.31;1853878;75;936562;-71
2020/12/13 01:20:50;;;;;;;12.30;4.60;;;;;;;3.68;100.00;100835.00;1845283;77;932704;-71
2020/12/13 01:23:20;;;;;;;12.18;4.87;;;;;;;3.60;100.00;100825.19;1853584;76;936778;-71
2020/12/13 01:25:49;;;;;;;10.50;4.90;;;;;;;3.63;100.00;100830.23;1845192;76;934909;-71
2020/12/13 01:28:21;;;;;;;10.32;4.87;;;;;;;3.64;100.00;100827.22;1853857;76;936540;-71
2020/12/13 01:30:50;;;;;;;15.60;5.30;;;;;;;3.68;100.00;100815.21;1845224;76;934466;-72
2020/12/13 01:33:20;;;;;;;11.90;4.45;;;;;;;3.42;100.00;100805.59;1853619;75;936504;-72
2020/12/13 01:35:50;;;;;;;11.90;5.13;;;;;;;3.54;100.00;100813.28;1845272;75;934576;-71
2020/12/13 01:38:20;;;;;;;11.20;5.40;;;;;;;3.51;100.00;100818.39;1853602;75;935715;-71
2020/12/13 01:40:51;;;;;;;13.50;5.33;;;;;;;3.44;100.00;100825.39;1845128;76;934703;-72
2020/12/13 01:43:21;;;;;;;10.43;5.00;;;;;;;3.48;100.00;100816.13;1853754;75;936634;-71
2020/12/13 01:45:51;;;;;;;9.27;4.80;;;;;;;3.61;100.00;100807.65;1845410;77;934608;-72
2020/12/13 01:48:21;;;;;;;9.63;5.17;;;;;;;3.34;100.00;100808.67;1853940;75;934638;-71
2020/12/13 01:50:57;;;;;;;11.07;5.40;;;;;;;3.31;100.00;100814.64;1845405;76;932784;-71
2020/12/13 01:53:27;;;;;;;11.97;5.57;;;;;;;3.35;100.00;100819.12;1853440;75;936733;-71
2020/12/13 01:55:59;;;;;;;11.40;5.30;;;;;;;3.40;100.00;100823.36;1845388;77;934647;-71
2020/12/13 01:58:32;;;;;;;14.70;5.50;;;;;;;3.41;100.00;100831.91;1866025;75;936574;-71
2020/12/13 02:01:06;;;;;;;8.40;5.40;;;;;;;3.29;100.00;100833.28;1853354;75;936595;-72
2020/12/13 02:03:40;;;;;;;8.83;4.77;;;;;;;3.34;100.00;100837.50;1866114;75;934610;-71
2020/12/13 02:06:15;;;;;;;14.90;5.90;;;;;;;3.26;100.00;100833.73;1853058;76;934378;-71
2020/12/13 02:08:44;;;;;;;12.97;5.37;;;;;;;3.37;100.00;100825.22;1845236;76;936731;-71
2020/12/13 02:11:14;;;;;;;9.23;5.60;;;;;;;3.32;100.00;100831.42;1853827;75;946273;-71
2020/12/13 02:13:44;;;;;;;9.63;5.57;;;;;;;3.15;100.00;100840.90;1866301;75;934468;-71
2020/12/13 02:16:14;;;;;;;10.20;5.40;;;;;;;3.17;100.00;100854.36;1833330;76;937419;-71
2020/12/13 02:18:45;;;;;;;10.00;5.10;;;;;;;3.08;100.00;100853.06;1866410;75;936601;-71
2020/12/13 02:21:15;;;;;;;11.78;5.67;;;;;;;3.12;100.00;100859.19;1853491;75;937597;-71
2020/12/13 02:23:45;;;;;;;12.13;5.57;;;;;;;3.03;100.00;100857.89;1866206;75;936599;-71
2020/12/13 02:26:16;;;;;;;10.50;5.57;;;;;;;2.94;100.00;100860.67;1833385;76;935605;-71
2020/12/13 02:28:46;;;;;;;13.83;5.80;;;;;;;2.95;100.00;100856.02;1865871;75;936528;-71
2020/12/13 02:31:16;;;;;;;7.28;5.03;;;;;;;2.84;100.00;100847.20;1853992;75;936562;-71
2020/12/13 02:33:46;;;;;;;11.00;5.53;;;;;;;2.89;100.00;100857.78;1845678;76;934640;-70
2020/12/13 02:36:16;;;;;;;13.93;5.30;;;;;;;3.02;100.00;100847.98;1854084;75;936757;-71
2020/12/13 02:38:46;;;;;;;13.68;6.03;;;;;;;3.15;100.00;100849.67;1866021;75;936602;-71
2020/12/13 02:41:15;;;;;;;13.28;6.28;;;;;;;3.13;100.00;100844.94;1853392;75;936614;-71
2020/12/13 02:43:45;;;;;;;9.57;5.43;;;;;;;3.18;100.00;100855.52;1866160;75;936643;-71
2020/12/13 02:46:15;;;;;;;11.77;6.20;;;;;;;3.14;100.00;100850.73;1833304;76;934603;-71
2020/12/13 02:48:45;;;;;;;11.23;5.50;;;;;;;3.11;100.00;100852.59;1865857;75;937071;-71
2020/12/13 02:51:14;;;;;;;8.08;5.28;;;;;;;2.93;100.00;100849.92;1853591;75;936684;-71
2020/12/13 02:53:44;;;;;;;11.10;5.47;;;;;;;3.01;100.00;100853.16;1845359;77;934900;-71
2020/12/13 02:56:14;;;;;;;9.28;5.95;;;;;;;2.98;100.00;100859.66;1854081;76;937615;-71
2020/12/13 02:58:44;;;;;;;13.10;5.87;;;;;;;2.99;100.00;100855.31;1866144;75;933279;-71
2020/12/13 03:01:14;;;;;;;11.85;5.15;;;;;;;3.26;100.00;100850.20;1832811;77;946275;-71
2020/12/13 03:03:44;;;;;;;10.93;5.53;;;;;;;3.13;100.00;100853.17;1865967;76;936582;-71
2020/12/13 03:06:14;;;;;;;7.87;5.70;;;;;;;3.10;100.00;100856.39;1831728;76;939638;-71
2020/12/13 03:08:43;;;;;;;11.07;5.80;;;;;;;2.97;100.00;100847.84;1865717;75;934528;-71
2020/12/13 03:11:17;;;;;;;11.33;5.23;;;;;;;3.53;100.00;100852.80;1854079;75;935495;-71
2020/12/13 03:13:44;;;;;;;12.60;5.47;;;;;;;3.07;100.00;100867.32;1866002;75;936724;-72
2020/12/13 03:16:14;;;;;;;11.97;6.45;;;;;;;2.80;100.00;100872.06;1853708;75;940330;-71
2020/12/13 03:18:45;;;;;;;15.17;6.40;;;;;;;2.84;100.00;100869.16;1845344;76;936621;-71
2020/12/13 03:21:14;;;;;;;13.30;5.80;;;;;;;3.18;100.00;100862.91;1853601;75;936502;-71
2020/12/13 03:23:44;;;;;;;10.93;5.45;;;;;;;3.09;100.00;100865.69;1845240;76;936570;-71
2020/12/13 03:26:14;;;;;;;13.55;6.17;;;;;;;3.11;100.00;100861.66;1853696;75;936527;-71
2020/12/13 03:28:44;;;;;;;9.33;5.27;;;;;;;3.16;100.00;100856.30;1865828;75;936617;-71
2020/12/13 03:31:14;;;;;;;10.75;6.15;;;;;;;3.08;100.00;100842.09;1833328;76;934470;-72
2020/12/13 03:33:44;;;;;;;10.57;5.97;;;;;;;3.22;100.00;100839.41;1865761;76;936786;-72
2020/12/13 03:36:14;;;;;;;10.75;5.33;;;;;;;3.20;100.00;100833.33;1853454;75;936851;-71
2020/12/13 03:38:43;;;;;;;12.23;6.10;;;;;;;3.15;100.00;100834.58;1865910;76;936785;-71
2020/12/13 03:41:14;;;;;;;10.78;5.47;;;;;;;3.34;100.00;100820.22;1833173;76;936454;-71
2020/12/13 03:43:43;;;;;;;11.40;6.03;;;;;;;3.29;100.00;100818.72;1865719;76;935514;-72
2020/12/13 03:46:13;;;;;;;13.18;6.03;;;;;;;3.28;100.00;100810.17;1853543;75;935493;-72
2020/12/13 03:48:43;;;;;;;8.63;4.77;;;;;;;3.31;100.00;100809.69;1865808;75;936695;-71
2020/12/13 03:51:13;;;;;;;11.75;5.30;;;;;;;3.17;100.00;100809.92;1832268;76;934681;-70
2020/12/13 03:53:43;;;;;;;10.80;5.17;;;;;;;3.10;100.00;100809.21;1865428;76;937133;-71
2020/12/13 03:56:12;;;;;;;11.77;5.80;;;;;;;3.11;100.00;100802.66;1833310;76;935441;-72
2020/12/13 03:58:42;;;;;;;10.07;5.30;;;;;;;3.19;100.00;100799.55;1845168;76;936595;-72
2020/12/13 04:01:12;;;;;;;12.50;5.78;;;;;;;3.18;100.00;100795.13;1852837;76;936636;-72
2020/12/13 04:03:42;;;;;;;8.07;5.43;;;;;;;3.39;100.00;100792.33;1845425;76;936713;-72
2020/12/13 04:06:12;;;;;;;13.53;7.27;;;;;;;3.56;100.00;100791.05;1853804;75;934473;-72
2020/12/13 04:08:41;;;;;;;11.33;6.17;;;;;;;3.59;100.00;100787.84;1865723;76;936676;-71
2020/12/13 04:11:11;;;;;;;12.20;6.92;;;;;;;3.56;100.00;100785.56;1833124;76;936734;-72
2020/12/13 04:13:41;;;;;;;11.47;5.27;;;;;;;3.65;100.00;100787.70;1865953;75;935687;-72
2020/12/13 04:16:13;;;;;;;8.43;5.60;;;;;;;3.66;100.00;100791.29;1853572;75;936465;-72
2020/12/13 04:18:43;;;;;;;19.50;6.70;;;;;;;3.70;100.00;100791.63;1845360;77;934561;-72
2020/12/13 04:21:13;;;;;;;12.20;6.08;;;;;;;3.76;100.00;100794.80;1853765;75;936643;-72
2020/12/13 04:23:43;;;;;;;12.90;5.97;;;;;;;3.76;100.00;100788.77;1845439;76;936568;-72
2020/12/13 04:26:12;;;;;;;10.40;5.83;;;;;;;3.76;100.00;100786.56;1853533;76;936572;-71
2020/12/13 04:28:42;;;;;;;16.80;6.10;;;;;;;3.74;100.00;100785.95;1845284;76;937030;-71
2020/12/13 04:31:12;;;;;;;12.73;5.70;;;;;;;3.73;100.00;100782.91;1853643;76;935713;-71
2020/12/13 04:33:42;;;;;;;10.90;5.90;;;;;;;3.76;100.00;100786.03;1865906;75;936486;-71
2020/12/13 04:36:12;;;;;;;11.63;5.83;;;;;;;3.74;100.00;100782.67;1832767;75;936831;-72
2020/12/13 04:38:41;;;;;;;13.43;5.43;;;;;;;3.72;100.00;100775.23;1866153;75;936549;-72
2020/12/13 04:41:11;;;;;;;14.27;5.37;;;;;;;3.75;100.00;100776.64;1854034;75;935426;-72
2020/12/13 04:43:41;;;;;;;11.07;5.53;;;;;;;3.78;100.00;100782.48;1845220;77;936608;-72
2020/12/13 04:46:12;;;;;;;9.43;6.20;;;;;;;4.06;100.00;100771.52;1852998;76;936589;-72
2020/12/13 04:48:42;;;;;;;14.07;6.33;;;;;;;3.74;100.00;100773.59;1865787;75;934462;-72
2020/12/13 04:51:14;;;;;;;12.10;6.27;;;;;;;3.82;100.00;100772.67;1854432;76;936605;-72
2020/12/13 04:53:46;;;;;;;14.60;5.97;;;;;;;3.74;100.00;100770.84;1865976;75;936434;-71
2020/12/13 04:56:18;;;;;;;9.65;5.58;;;;;;;3.77;100.00;100768.98;1853994;75;936724;-72
2020/12/13 04:58:50;;;;;;;10.18;5.80;;;;;;;3.75;100.00;100770.61;1865544;76;932353;-72
2020/12/13 05:01:19;;;;;;;11.97;6.00;;;;;;;3.90;100.00;100772.83;1821376;76;936448;-72
2020/12/13 05:03:49;;;;;;;12.43;6.05;;;;;;;3.94;100.00;100774.84;1865800;75;934727;-72
2020/12/13 05:06:20;;;;;;;11.20;5.60;;;;;;;3.95;100.00;100759.20;1853636;76;936558;-71
2020/12/13 05:08:50;;;;;;;10.93;5.43;;;;;;;3.85;100.00;100754.89;1843848;76;934482;-72
2020/12/13 05:11:19;;;;;;;10.35;5.55;;;;;;;3.85;100.00;100754.89;1853332;76;936569;-72
2020/12/13 05:13:49;;;;;;;10.60;5.73;;;;;;;3.88;100.00;100745.62;1866301;75;934625;-71
2020/12/13 05:16:19;;;;;;;13.08;5.30;;;;;;;4.00;100.00;100748.31;1833641;76;937288;-71
2020/12/13 05:18:49;;;;;;;17.20;6.00;;;;;;;3.96;100.00;100741.11;1866224;76;934682;-72
2020/12/13 05:21:22;;;;;;;13.40;5.25;;;;;;;4.01;100.00;100741.21;1853795;75;936517;-72
2020/12/13 05:23:53;;;;;;;9.90;5.13;;;;;;;4.00;100.00;100733.20;1866163;75;934576;-72
2020/12/13 05:26:23;;;;;;;13.37;5.87;;;;;;;3.89;100.00;100723.94;1833611;76;934567;-72
2020/12/13 05:28:55;;;;;;;11.53;5.63;;;;;;;3.99;100.00;100719.16;1866229;76;934573;-71
2020/12/13 05:31:27;;;;;;;9.53;5.00;;;;;;;3.96;100.00;100725.16;1833416;76;936661;-71
2020/12/13 05:34:02;;;;;;;12.50;5.03;;;;;;;4.12;100.00;100718.33;1866333;75;932645;-71
2020/12/13 05:36:36;;;;;;;8.73;4.83;;;;;;;4.17;100.00;100724.47;1866178;75;935525;-72
2020/12/13 05:39:04;;;;;;;9.67;5.83;;;;;;;4.29;100.00;100727.98;1853447;76;944202;-72
2020/12/13 05:41:37;;;;;;;9.60;5.10;;;;;;;4.36;100.00;100728.69;1845617;76;934489;-72
2020/12/13 05:44:25;;;;;;;11.05;5.35;;;;;;;4.26;100.00;100725.73;1853592;75;934593;-72
2020/12/13 05:47:00;;;;;;;9.20;4.80;;;;;;;4.28;100.00;100724.13;1867314;75;936624;-72
2020/12/13 05:52:24;;;;;;;12.53;5.13;;;;;;;4.28;100.00;100711.19;1833726;75;936577;-72
2020/12/13 05:54:55;;;;;;;8.17;4.67;;;;;;;4.31;100.00;100708.50;1865961;76;934870;-72
2020/12/13 05:57:27;;;;;;;14.27;4.93;;;;;;;4.51;100.00;100719.31;1853769;75;934510;-72
2020/12/13 05:59:57;;;;;;;13.00;4.93;;;;;;;4.41;100.00;100710.88;1845513;76;934526;-72
2020/12/13 06:02:30;;;;;;;12.53;4.70;;;;;;;4.39;100.00;100707.55;1866158;75;936853;-72
2020/12/13 06:05:03;;;;;;;9.00;4.50;;;;;;;4.43;100.00;100700.48;1866026;75;934777;-72
2020/12/13 06:07:36;;;;;;;8.80;4.70;;;;;;;4.48;100.00;100696.98;1845574;77;934529;-72
2020/12/13 06:10:07;;;;;;;8.87;5.00;;;;;;;4.44;100.00;100695.81;1853862;75;934734;-72
2020/12/13 06:12:38;;;;;;;9.23;4.50;;;;;;;4.48;100.00;100690.94;1846087;76;934580;-72
2020/12/13 06:15:09;;;;;;;11.57;5.20;;;;;;;4.41;100.00;100688.03;1853809;75;934574;-72
2020/12/13 06:17:39;;;;;;;12.20;5.27;;;;;;;4.47;100.00;100691.18;1843541;77;936480;-72
2020/12/13 06:20:09;;;;;;;12.35;4.15;;;;;;;4.50;100.00;100692.89;1853896;75;936751;-72
2020/12/13 06:22:39;;;;;;;9.17;4.47;;;;;;;4.55;100.00;100701.77;1845253;76;936714;-72
2020/12/13 06:25:10;;;;;;;10.05;4.70;;;;;;;4.46;100.00;100695.84;1853599;75;934416;-70
2020/12/13 06:27:40;;;;;;;10.57;3.90;;;;;;;4.37;100.00;100690.99;1845332;76;936714;-72
2020/12/13 06:30:11;;;;;;;5.67;3.80;;;;;;;4.48;100.00;100684.06;1853189;75;936558;-72
2020/12/13 06:32:42;;;;;;;8.63;4.47;;;;;;;4.46;100.00;100680.72;1843847;76;934437;-71
2020/12/13 06:35:11;;;;;;;6.10;3.98;;;;;;;4.48;100.00;100668.94;1853629;76;934479;-72
2020/12/13 06:37:42;;;;;;;9.03;3.83;;;;;;;4.52;100.00;100663.77;1866187;75;934437;-72
2020/12/13 06:40:19;;;;;;;8.03;3.77;;;;;;;4.63;100.00;100668.88;1853367;75;934685;-71
2020/12/13 06:42:48;;;;;;;8.13;4.17;;;;;;;4.56;100.00;100659.44;1844948;76;934501;-71
2020/12/13 06:45:19;;;;;;;9.63;3.83;;;;;;;4.53;100.00;100648.41;1854025;75;934387;-72
2020/12/13 06:47:50;;;;;;;9.80;3.43;;;;;;;4.68;100.00;100645.58;1845491;76;932824;-72
2020/12/13 06:50:24;;;;;;;9.33;4.00;;;;;;;4.73;100.00;100647.88;1854160;75;934654;-72
2020/12/13 06:52:55;;;;;;;10.50;4.03;;;;;;;4.65;100.00;100641.42;1845268;77;932845;-71
2020/12/13 06:55:33;;;;;;;8.93;3.83;;;;;;;4.79;100.00;100635.84;1853971;75;936748;-72
2020/12/13 06:58:04;;;;;;;6.27;3.60;;;;;;;4.93;100.00;100633.03;1833218;76;934725;-72
2020/12/13 07:00:50;;;;;;;7.40;3.85;;;;;;;4.85;100.00;100630.72;1865711;75;934471;-71
2020/12/13 07:03:28;;;;;;;7.55;3.72;;;;;;;4.80;100.00;100631.18;1853420;75;934645;-72
2020/12/13 07:06:00;;;;;;;7.23;3.60;;;;;;;4.79;100.00;100625.41;1844795;77;932809;-71
2020/12/13 07:08:31;;;;;;;12.20;3.80;;;;;;;5.04;100.00;100634.86;1865685;76;934532;-72
2020/12/13 07:11:02;;;;;;;7.93;3.57;;;;;;;5.10;100.00;100628.02;1865800;75;934800;-71
2020/12/13 07:13:34;;;;;;;6.53;3.43;;;;;;;5.18;100.00;100628.41;1845638;76;934472;-71
2020/12/13 07:16:09;;;;;;;8.83;3.27;;;;;;;5.18;100.00;100629.80;1853716;76;933389;-71
2020/12/13 07:18:41;;;;;;;8.20;3.05;;;;;;;5.27;100.00;100623.30;1865979;75;934658;-71
2020/12/13 07:21:11;;;;;;;8.10;2.98;;;;;;;5.35;100.00;100613.20;1853994;76;934402;-71
2020/12/13 07:23:41;;;;;;;10.60;2.97;;;;;;;5.35;100.00;100611.29;1845389;77;934684;-71
2020/12/13 07:26:11;;;;;;;9.07;3.20;;;;;;;5.33;100.00;100604.39;1853754;75;936545;-71
2020/12/13 07:28:41;;;;;;;10.07;3.70;;;;;;;5.48;100.00;100604.55;1866188;76;934981;-71
2020/12/13 07:31:12;;;;;;;7.92;2.98;;;;;;;5.52;100.00;100599.39;1832910;77;936707;-72
2020/12/13 07:33:42;;;;;;;6.97;3.00;;;;;;;5.60;100.00;100597.55;1865850;76;934713;-72
2020/12/13 07:36:12;;;;;;;7.07;3.17;;;;;;;5.71;100.00;100601.52;1853940;75;934562;-71
2020/12/13 07:38:43;;;;;;;7.80;3.00;;;;;;;5.59;100.00;100604.98;1866001;76;934740;-72
2020/12/13 07:41:21;;;;;;;5.87;2.62;;;;;;;5.65;100.00;100603.92;1853931;76;934655;-71
2020/12/13 07:43:56;;;;;;;9.67;3.37;;;;;;;5.83;100.00;100599.98;1865626;76;932973;-71
2020/12/13 07:46:27;;;;;;;6.77;3.43;;;;;;;5.82;100.00;100595.55;1833378;76;934564;-71
2020/12/13 07:49:06;;;;;;;8.97;3.23;;;;;;;5.87;100.00;100589.59;1866265;75;932713;-73
2020/12/13 07:51:38;;;;;;;10.73;3.07;;;;;;;5.82;100.00;100585.37;1865756;75;934582;-72
2020/12/13 07:54:17;;;;;;;7.83;2.95;;;;;;;6.03;100.00;100582.86;1853430;76;936498;-71
2020/12/13 07:56:48;;;;;;;9.23;3.10;;;;;;;6.01;100.00;100585.03;1845494;77;934568;-72
2020/12/13 07:59:19;;;;;;;9.50;3.90;;;;;;;6.07;100.00;100584.00;1854067;75;934440;-72
2020/12/13 08:01:50;;;;;;;9.07;3.20;;;;;;;6.07;100.00;100586.21;1865633;75;932644;-72
2020/12/13 08:04:33;;;;;;;5.85;2.65;;;;;;;6.06;100.00;100583.16;1833330;76;934744;-73
2020/12/13 08:07:04;;;;;;;6.70;3.00;;;;;;;6.15;100.00;100586.27;1853888;75;934655;-74
2020/12/13 08:09:34;;;;;;;8.23;3.10;;;;;;;6.18;100.00;100578.30;1865508;76;933332;-73
2020/12/13 08:12:05;;;;;;;7.67;2.97;;;;;;;6.18;100.00;100578.30;1853544;75;934640;-73
2020/12/13 08:14:35;;;;;;;10.17;2.83;;;;;;;6.25;100.00;100578.90;1866064;76;934530;-72
2020/12/13 08:17:05;;;;;;;6.57;2.90;;;;;;;6.28;100.00;100577.02;1853483;75;936675;-74
2020/12/13 08:19:38;;;;;;;10.77;3.20;;;;;;;6.23;100.00;100585.78;1866418;75;934577;-73
2020/12/13 08:22:10;;;;;;;9.73;3.17;;;;;;;6.21;100.00;100588.80;1853306;75;936621;-72
2020/12/13 08:24:40;;;;;;;10.23;2.73;;;;;;;6.23;100.00;100588.00;1845767;76;934501;-73
2020/12/13 08:27:12;;;;;;;11.97;3.30;;;;;;;6.21;100.00;100581.06;1854034;75;936686;-74
2020/12/13 08:29:42;;;;;;;10.83;3.63;;;;;;;6.16;100.00;100587.37;1845339;76;936732;-75
2020/12/13 08:32:14;;;;;;;8.00;3.70;;;;;;;6.13;100.00;100581.55;1853902;75;945421;-73
2020/12/13 08:34:45;;;;;;;11.87;3.33;;;;;;;6.02;100.00;100582.56;1845512;76;934660;-73
2020/12/13 08:37:16;;;;;;;9.73;3.30;;;;;;;6.13;100.00;100581.01;1853794;76;936599;-73
2020/12/13 08:39:46;;;;;;;11.27;3.97;;;;;;;6.09;100.00;100584.01;1865554;75;934675;-73
2020/12/13 08:42:23;;;;;;;8.97;3.57;;;;;;;6.05;100.00;100584.79;1853843;75;936683;-72
2020/12/13 08:44:53;;;;;;;9.60;3.30;;;;;;;6.12;100.00;100578.53;1845390;76;932517;-73
2020/12/13 08:47:26;;;;;;;10.17;3.77;;;;;;;6.17;100.00;100571.66;1853698;75;934437;-73
2020/12/13 08:49:55;;;;;;;11.23;3.53;;;;;;;6.16;100.00;100573.58;1865710;76;934630;-72
2020/12/13 08:52:26;;;;;;;11.68;4.25;;;;;;;6.21;100.00;100575.01;1854039;75;936605;-71
2020/12/13 08:54:59;;;;;;;7.93;3.83;;;;;;;6.30;100.00;100570.67;1845368;76;934744;-71
2020/12/13 08:57:31;;;;;;;9.97;4.40;;;;;;;6.20;100.00;100568.39;1866295;75;934524;-71
2020/12/13 09:00:03;;;;;;;11.13;4.23;;;;;;;6.23;100.00;100563.17;1866085;75;932761;-71
2020/12/13 09:02:34;;;;;;;10.97;4.60;;;;;;;6.47;100.00;100560.86;1866025;75;936522;-72
2020/12/13 09:05:06;;;;;;;11.03;5.20;;;;;;;6.53;100.00;100565.33;1833360;76;936559;-71
2020/12/13 09:07:37;;;;;;;15.23;4.80;;;;;;;6.58;100.00;100555.71;1865834;76;936539;-71
2020/12/13 09:10:14;;;;;;;12.73;4.60;;;;;;;6.59;100.00;100551.83;1832599;76;936728;-72
2020/12/13 09:12:44;;;;;;;16.20;4.97;;;;;;;6.63;100.00;100555.72;1865872;76;936744;-72
2020/12/13 09:15:16;;;;;;;9.93;4.33;;;;;;;6.69;100.00;100548.31;1833486;76;936619;-72
2020/12/13 09:17:55;;;;;;;10.00;4.30;;;;;;;6.69;100.00;100544.17;1866041;75;934501;-72
2020/12/13 09:20:27;;;;;;;12.77;4.50;;;;;;;6.70;100.00;100529.28;1853254;76;936860;-72
2020/12/13 09:23:04;;;;;;;9.67;4.43;;;;;;;6.78;100.00;100526.01;1845394;76;934576;-72
2020/12/13 09:25:38;;;;;;;10.97;4.93;;;;;;;6.86;100.00;100529.64;1865294;75;934466;-72
2020/12/13 09:28:09;;;;;;;13.30;4.80;;;;;;;6.84;100.00;100537.38;1833075;76;936586;-73
2020/12/13 09:30:40;;;;;;;9.67;4.57;;;;;;;6.87;100.00;100540.97;1865814;75;936478;-73
2020/12/13 09:33:12;;;;;;;10.13;4.47;;;;;;;6.89;100.00;100539.33;1833613;76;934628;-73
2020/12/13 09:35:42;;;;;;;13.13;5.00;;;;;;;6.93;100.00;100540.45;1865808;75;936630;-74
2020/12/13 09:38:12;;;;;;;10.18;4.40;;;;;;;6.96;100.00;100530.24;1833350;76;936767;-73
2020/12/13 09:40:42;;;;;;;13.23;4.47;;;;;;;6.94;100.00;100538.78;1865948;76;936647;-73
2020/12/13 09:43:12;;;;;;;12.93;4.90;;;;;;;6.96;100.00;100538.53;1853594;75;936532;-74
2020/12/13 09:45:42;;;;;;;13.50;4.43;;;;;;;6.95;100.00;100533.55;1865849;76;936537;-74
2020/12/13 09:48:12;;;;;;;12.95;4.83;;;;;;;7.06;100.00;100525.58;1833375;76;936867;-74
2020/12/13 09:50:42;;;;;;;11.00;4.63;;;;;;;7.08;100.00;100522.01;1865824;76;936706;-74
2020/12/13 09:53:12;;;;;;;12.00;4.37;;;;;;;7.18;100.00;100521.23;1853795;76;936635;-74
2020/12/13 09:55:42;;;;;;;9.57;4.47;;;;;;;7.19;100.00;100518.72;1866301;75;936622;-74
2020/12/13 09:58:12;;;;;;;11.55;4.37;;;;;;;7.31;100.00;100510.50;1854038;75;934820;-74
2020/12/13 10:00:41;;;;;;;9.60;4.20;;;;;;;7.31;100.00;100503.59;1845502;76;937222;-74
2020/12/13 10:03:12;;;;;;;12.33;4.10;;;;;;;7.39;100.00;100505.53;1854312;75;934687;-74
2020/12/13 10:05:58;;;;;;;10.90;4.03;;;;;;;7.40;100.00;100503.06;1866144;75;936516;-74
2020/12/13 10:11:09;;;;;;;10.48;3.67;;;;;;;7.49;100.00;100490.34;1853690;75;936543;-74
2020/12/13 10:13:39;;;;;;;17.73;4.77;;;;;;;7.51;100.00;100476.55;1865987;76;936530;-75
2020/12/13 10:16:14;;;;;;;13.83;3.77;;;;;;;7.52;100.00;100489.81;1853515;75;936541;-74
2020/12/13 10:18:44;;;;;;;8.17;3.40;;;;;;;7.59;100.00;100477.93;1845526;76;936562;-74
2020/12/13 10:21:14;;;;;;;7.73;3.70;;;;;;;7.67;100.00;100477.37;1853898;76;934660;-75
2020/12/13 10:23:43;;;;;;;12.57;3.30;;;;;;;7.66;100.00;100465.49;1866062;76;934714;-75
2020/12/13 10:26:14;;;;;;;8.95;3.45;;;;;;;7.69;100.00;100457.22;1853731;75;936690;-74
2020/12/13 10:28:43;;;;;;;11.37;3.10;;;;;;;7.70;100.00;100454.16;1845322;77;934506;-74
2020/12/13 10:31:14;;;;;;;10.40;3.87;;;;;;;7.77;100.00;100448.38;1854160;75;935622;-74
2020/12/13 10:33:44;;;;;;;10.30;3.27;;;;;;;7.88;100.00;100454.71;1845336;77;936560;-74
2020/12/13 10:36:15;;;;;;;8.50;2.65;;;;;;;7.88;100.00;100449.18;1853887;75;936778;-73
2020/12/13 10:38:48;;;;;;;5.37;2.40;;;;;;;8.04;100.00;100437.03;1866246;75;934476;-74
2020/12/13 10:41:17;;;;;;;10.83;3.00;;;;;;;8.06;100.00;100438.39;1853969;75;934641;-74
2020/12/13 10:43:47;;;;;;;11.03;2.70;;;;;;;8.16;100.00;100441.70;1866074;76;936804;-74
2020/12/13 10:46:17;;;;;;;6.17;1.72;;;;;;;8.17;100.00;100442.78;1853660;75;936743;-75
2020/12/13 10:48:47;;;;;;;9.53;2.63;;;;;;;8.23;100.00;100431.17;1845615;77;932606;-73
2020/12/13 10:51:18;;;;;;;9.88;1.82;;;;;;;8.27;100.00;100427.28;1854044;75;934473;-73
2020/12/13 10:53:49;;;;;;;5.50;1.70;;;;;;;8.26;100.00;100427.83;1866408;76;932571;-73
2020/12/13 10:56:19;;;;;;;5.05;2.02;;;;;;;8.29;100.00;100425.08;1854033;75;934749;-73
2020/12/13 10:58:48;;;;;;;7.47;1.70;;;;;;;8.38;100.00;100417.89;1866295;75;932553;-73
2020/12/13 11:01:18;;;;;;;5.03;1.90;;;;;;;8.37;100.00;100414.30;1854400;75;934755;-73
2020/12/13 11:03:48;;;;;;;3.87;1.13;;;;;;;8.36;100.00;100409.86;1866107;75;932583;-73
2020/12/13 11:06:18;;;;;;;5.20;1.40;;;;;;;8.43;100.00;100400.70;1833471;76;934989;-71
2020/12/13 11:08:48;;;;;;;5.97;1.37;;;;;;;8.50;100.00;100388.79;1866004;76;933013;-72
2020/12/13 11:11:22;;;;;;;4.90;1.20;;;;;;;8.45;100.00;100391.57;1853755;75;934507;-72
2020/12/13 11:13:52;;;;;;;5.30;1.50;;;;;;;8.51;100.00;100379.37;1845300;76;932568;-72
2020/12/13 11:16:21;;;;;;;3.33;1.33;;;;;;;8.52;100.00;100390.70;1852933;76;934756;-73
2020/12/13 11:18:51;;;;;;;5.00;1.40;;;;;;;8.58;100.00;100394.28;1845284;76;932670;-73
2020/12/13 11:21:21;;;;;;;3.03;1.47;;;;;;;8.59;100.00;100388.48;1853716;75;934476;-72
2020/12/13 11:23:51;;;;;;;3.60;1.00;;;;;;;8.66;100.00;100384.00;1866225;76;932783;-75
2020/12/13 11:26:21;;;;;;;2.80;1.40;;;;;;;8.69;100.00;100384.81;1853999;75;934502;-75
2020/12/13 11:28:51;;;;;;;2.33;1.00;;;;;;;8.71;100.00;100381.22;1845856;76;932836;-75
2020/12/13 11:31:20;;;;;;;1.73;0.97;;;;;;;8.73;100.00;100378.98;1854009;75;934476;-74
2020/12/13 11:33:50;;;;;;;4.77;0.93;;;;;;;8.78;100.00;100370.65;1866037;75;932647;-78